Latest Weather Observations for Minlaton Airport

IDS60801

Issued at 11:41 am CST Tuesday 23 April 2024 (issued every 10 minutes, with the page automatically refreshed every 10 minutes)

About weather observations | Map of weather stations | Latest weather observations for SA | Other Formats
Station Details ID: 022031 Name: MINLATON AERO Lat: -34.75 Lon: 137.53 Height: 32.0 m
Data from the previous 72 hours. | See also: Recent months at Minlaton Airport
Date/Time
CST
Temp
°C
App
Temp
°C
Dew
Point
°C
Rel
Hum
%
Delta-T
°C
Wind Press
QNH
hPa
Press
MSL
hPa
Rain since
9am
mm
Dir  Spd
km/h
Gust
km/h
Spd
kts
Gust
kts
23/11:30am 21.3 15.5 10.8 51 5.8 WNW 32 43 17 23 1018.3 1018.3 0.0
23/11:00am 22.0 16.5 12.0 53 5.6 WNW 32 39 17 21 1018.4 1018.4 0.0
23/10:30am 22.0 17.7 13.1 57 5.1 NW 28 33 15 18 1018.3 1018.3 0.0
23/10:00am 22.4 16.9 11.8 51 6.0 NNW 32 41 17 22 1018.2 1018.2 0.0
23/09:30am 23.3 16.1 10.4 44 7.1 NNW 39 48 21 26 1018.0 1018.0 0.0
23/09:00am 21.6 15.4 10.1 48 6.2 N 33 46 18 25 1018.1 1018.1 0.0
23/08:30am 20.5 14.7 9.4 49 5.9 N 30 41 16 22 1018.1 1018.1 0.0
23/08:00am 17.9 13.0 10.0 60 4.2 N 26 33 14 18 1018.0 1018.0 0.0
23/07:30am 16.1 11.3 10.4 69 3.0 N 26 32 14 17 1018.0 1018.0 0.0
23/07:00am 15.3 10.4 9.9 70 2.8 NNE 26 30 14 16 1017.8 1017.8 0.0
23/06:30am 15.2 10.1 9.3 68 3.0 NNE 26 32 14 17 1017.8 1017.8 0.0
23/06:00am 15.7 10.2 7.7 59 4.0 NNE 26 32 14 17 1017.8 1017.8 0.0
23/05:30am 14.8 9.9 6.9 59 3.9 NNE 22 28 12 15 1018.1 1018.1 0.0
23/05:00am 13.4 8.2 5.3 58 3.8 NNE 22 26 12 14 1018.3 1018.3 0.0
23/04:30am 12.7 7.9 4.7 58 3.7 N 19 20 10 11 1018.2 1018.2 0.0
23/04:00am 12.1 7.4 3.3 55 3.9 NNE 17 19 9 10 1018.0 1018.0 0.0
23/03:30am 11.6 8.4 2.9 55 3.8 N 9 13 5 7 1018.1 1018.1 0.0
23/03:00am 12.5 7.8 3.2 53 4.1 NNE 17 17 9 9 1018.1 1018.1 0.0
23/02:30am 12.2 7.4 2.4 51 4.2 NNE 17 17 9 9 1018.4 1018.4 0.0
23/02:00am 11.6 7.2 2.9 55 3.8 NNE 15 15 8 8 1018.7 1018.7 0.0
23/01:30am 11.6 7.3 3.4 57 3.6 NE 15 17 8 9 1018.9 1018.9 0.0
23/01:00am 11.4 9.7 3.9 60 3.3 ESE 2 9 1 5 1019.2 1019.2 0.0
23/12:30am 12.1 10.2 4.8 61 3.3 S 4 7 2 4 1019.3 1019.3 0.0
23/12:00am 12.6 10.4 5.1 60 3.5 SSE 6 9 3 5 1019.6 1019.6 0.0
 
Date/Time
CST
Temp
°C
App
Temp
°C
Dew
Point
°C
Rel
Hum
%
Delta-T
°C
Wind Press
QNH
hPa
Press
MSL
hPa
Rain since
9am
mm
Dir  Spd
km/h
Gust
km/h
Spd
kts
Gust
kts
22/11:30pm 11.7 8.1 3.2 56 3.7 E 11 19 6 10 1019.7 1019.7 0.0
22/11:00pm 13.3 8.4 5.2 58 3.8 ENE 20 22 11 12 1019.8 1019.8 0.0
22/10:30pm 13.0 8.1 5.2 59 3.6 E 20 24 11 13 1020.2 1020.2 0.0
22/10:00pm 14.3 9.2 5.9 57 4.0 ENE 22 24 12 13 1020.5 1020.5 0.0
22/09:30pm 13.8 8.5 3.0 48 4.8 ENE 20 24 11 13 1020.7 1020.7 0.0
22/09:00pm 14.4 9.2 2.3 44 5.3 ENE 19 19 10 10 1020.6 1020.6 0.0
22/08:30pm 14.3 9.3 3.7 49 4.8 ENE 19 20 10 11 1020.7 1020.7 0.0
22/08:00pm 15.1 9.5 1.3 39 6.0 ENE 20 22 11 12 1020.9 1020.9 0.0
22/07:30pm 16.0 10.4 0.2 34 6.7 ENE 19 22 10 12 1021.0 1021.0 0.0
22/07:00pm 13.8 9.0 0.1 39 5.7 E 15 15 8 8 1021.0 1021.0 0.0
22/06:30pm 14.2 10.5 -0.3 37 6.0 ESE 9 11 5 6 1020.8 1020.8 0.0
22/06:00pm 14.8 11.0 -0.9 34 6.5 ESE 9 9 5 5 1020.7 1020.7 0.0
22/05:53pm 15.7 11.9 -0.9 32 6.9 ESE 9 9 5 5 1020.7 1020.7 0.0
22/05:30pm 20.8 17.5 0.1 25 9.2 SSE 7 9 4 5 1020.8 1020.8 0.0
22/05:00pm 22.7 19.1 0.5 23 10.1 SSW 9 13 5 7 1021.0 1021.0 0.0
22/04:30pm 23.2 19.9 0.3 22 10.4 WSW 7 11 4 6 1021.2 1021.2 0.0
22/04:00pm 24.0 20.5 1.0 22 10.7 WSW 9 13 5 7 1021.6 1021.6 0.0
22/03:30pm 23.4 20.2 2.8 26 9.8 WNW 9 13 5 7 1021.9 1021.9 0.0
22/03:00pm 23.4 19.4 2.8 26 9.8 WNW 13 20 7 11 1022.0 1022.0 0.0
22/02:30pm 23.2 18.5 3.2 27 9.6 NW 17 20 9 11 1022.2 1022.2 0.0
22/02:00pm 23.6 19.0 5.5 31 9.1 NNW 19 24 10 13 1022.4 1022.4 0.0
22/01:30pm 23.1 18.6 6.0 33 8.7 NNW 19 24 10 13 1022.9 1022.9 0.0
22/01:00pm 24.3 18.7 5.6 30 9.5 NW 24 30 13 16 1023.5 1023.5 0.0
22/12:30pm 23.8 18.1 4.7 29 9.5 NW 24 33 13 18 1023.9 1023.9 0.0
22/12:00pm 24.5 16.7 2.0 23 10.7 NNW 32 39 17 21 1024.1 1024.1 0.0
22/11:30am 24.4 17.5 2.5 24 10.5 NNW 28 35 15 19 1024.6 1024.6 0.0
22/11:00am 23.7 17.2 2.5 25 10.1 NNW 26 33 14 18 1025.0 1025.0 0.0
22/10:30am 22.9 16.7 4.4 30 9.1 NNW 26 33 14 18 1025.2 1025.2 0.0
22/10:00am 21.7 16.6 4.3 32 8.5 N 20 28 11 15 1025.5 1025.5 0.0
22/09:30am 20.1 15.7 7.5 44 6.4 N 20 24 11 13 1025.8 1025.8 0.0
22/09:00am 17.6 13.4 7.4 51 5.1 N 19 26 10 14 1026.1 1026.1 0.0
22/08:30am 15.3 11.1 7.3 59 3.9 N 19 20 10 11 1026.2 1026.2 0.0
22/08:00am 13.5 10.1 7.7 68 2.9 NE 15 17 8 9 1026.2 1026.2 0.0
22/07:30am 10.8 7.2 6.7 76 1.9 NE 15 17 8 9 1026.1 1026.1 0.0
22/07:00am 9.1 5.0 6.0 81 1.4 NE 17 19 9 10 1026.0 1026.0 0.0
22/06:30am 8.4 4.3 6.4 87 0.9 NE 17 19 9 10 1025.9 1025.9 0.0
22/06:00am 7.3 3.5 5.9 91 0.6 NE 15 17 8 9 1025.8 1025.8 0.0
22/05:30am 7.4 5.1 5.9 90 0.7 N 7 9 4 5 1025.8 1025.8 0.0
22/05:00am 8.3 6.3 6.3 87 0.9 NNE 6 7 3 4 1025.5 1025.5 0.0
22/04:30am 10.3 6.1 8.1 86 1.1 E 20 22 11 12 1025.1 1025.1 0.0
22/04:00am 10.2 5.6 8.3 88 0.9 E 22 24 12 13 1024.9 1024.9 0.0
22/03:30am 10.0 5.1 8.6 91 0.7 E 24 26 13 14 1024.8 1024.8 0.0
22/03:00am 10.4 6.1 9.2 92 0.6 E 22 24 12 13 1025.1 1025.1 0.0
22/02:30am 10.9 6.7 9.8 93 0.6 E 22 26 12 14 1025.3 1025.3 0.0
22/02:00am 10.8 6.6 9.7 93 0.6 E 22 26 12 14 1025.7 1025.7 0.0
22/01:30am 10.3 5.6 9.4 94 0.4 E 24 26 13 14 1026.2 1026.2 0.0
22/01:00am 9.4 4.9 8.5 94 0.4 E 22 24 12 13 1026.3 1026.3 0.0
22/12:30am 9.4 5.2 8.3 93 0.5 E 20 22 11 12 1026.4 1026.4 0.0
22/12:00am 9.4 5.3 8.5 94 0.4 E 20 22 11 12 1026.7 1026.7 0.0
 
Date/Time
CST
Temp
°C
App
Temp
°C
Dew
Point
°C
Rel
Hum
%
Delta-T
°C
Wind Press
QNH
hPa
Press
MSL
hPa
Rain since
9am
mm
Dir  Spd
km/h
Gust
km/h
Spd
kts
Gust
kts
21/11:30pm 8.7 4.5 7.6 93 0.5 E 19 19 10 10 1026.9 1026.9 0.0
21/11:00pm 7.4 3.7 6.2 92 0.5 E 15 17 8 9 1027.2 1027.2 0.0
21/10:30pm 8.6 4.4 7.4 92 0.6 ESE 19 20 10 11 1027.4 1027.4 0.0
21/10:00pm 8.7 4.8 7.3 91 0.7 ESE 17 19 9 10 1027.7 1027.7 0.0
21/09:30pm 9.1 5.3 7.5 90 0.8 ESE 17 17 9 9 1027.8 1027.8 0.0
21/09:00pm 10.4 6.9 8.7 89 0.8 E 17 19 9 10 1028.1 1028.1 0.0
21/08:30pm 10.4 7.1 8.2 86 1.1 E 15 17 8 9 1028.1 1028.1 0.0
21/08:00pm 11.5 8.1 9.2 86 1.2 E 17 17 9 9 1028.1 1028.1 0.0
21/07:30pm 12.0 8.7 9.4 84 1.3 ESE 17 19 9 10 1028.4 1028.3 0.0
21/07:00pm 12.7 9.3 9.3 80 1.7 ESE 17 19 9 10 1028.4 1028.3 0.0
21/06:30pm 13.0 9.8 8.5 74 2.2 ESE 15 17 8 9 1028.2 1028.2 0.0
21/06:00pm 14.5 11.2 8.0 65 3.2 ESE 15 17 8 9 1028.0 1028.0 0.0
21/05:30pm 17.4 15.0 8.5 56 4.5 ESE 11 15 6 8 1027.8 1027.8 0.0
21/05:00pm 18.9 15.1 7.7 48 5.7 SW 17 20 9 11 1027.7 1027.7 0.0
21/04:30pm 19.7 15.7 6.8 43 6.5 WSW 17 20 9 11 1027.8 1027.8 0.0
21/04:00pm 20.1 15.5 5.7 39 7.1 WSW 19 20 10 11 1027.9 1027.9 0.0
21/03:30pm 20.6 15.8 4.6 35 7.7 WSW 19 24 10 13 1028.0 1028.0 0.0
21/03:00pm 21.5 16.9 5.4 35 8.0 W 19 26 10 14 1028.4 1028.3 0.0
21/02:30pm 20.7 15.9 5.5 37 7.5 W 20 26 11 14 1028.6 1028.5 0.0
21/02:00pm 20.2 15.4 5.8 39 7.2 W 20 26 11 14 1028.7 1028.6 0.0
21/01:30pm 20.3 15.9 6.6 41 6.9 W 19 24 10 13 1029.0 1028.9 0.0
21/01:00pm 20.3 16.2 7.7 44 6.5 W 19 20 10 11 1029.4 1029.3 0.0
21/12:30pm 21.1 17.2 7.3 41 7.0 W 17 24 9 13 1029.8 1029.7 0.0
21/12:00pm 20.5 16.9 8.2 45 6.4 WNW 17 22 9 12 1030.3 1030.2 0.0
21/11:30am 20.0 16.7 8.0 46 6.2 W 15 22 8 12 1030.7 1030.6 0.0
21/11:00am 20.5 17.8 9.1 48 6.0 WNW 13 20 7 11 1031.0 1030.9 0.0
21/10:30am 19.8 18.0 7.9 46 6.1 NW 7 15 4 8 1031.1 1031.0 0.0
21/10:00am 19.1 17.6 9.0 52 5.3 NNE 7 13 4 7 1031.2 1031.1 0.0
21/09:30am 17.9 15.7 10.8 63 3.8 ENE 13 19 7 10 1031.2 1031.1 0.0
21/09:00am 16.2 14.2 11.6 74 2.5 ENE 13 17 7 9 1031.3 1031.2 0.0
21/08:30am 14.5 12.6 11.7 83 1.5 NE 13 17 7 9 1031.2 1031.1 0.0
21/08:00am 12.2 9.2 10.8 91 0.7 ENE 17 20 9 11 1030.9 1030.8 0.0
21/07:30am 9.7 5.6 8.6 93 0.5 E 20 24 11 13 1030.6 1030.5 0.0
21/07:00am 9.1 4.5 8.0 93 0.5 E 22 26 12 14 1030.4 1030.3 0.0
21/06:30am 9.3 5.1 8.1 92 0.6 E 20 24 11 13 1030.3 1030.2 0.0
21/06:00am 9.7 5.5 8.1 90 0.8 E 20 24 11 13 1030.0 1029.9 0.0
21/05:30am 10.7 6.3 9.0 89 0.8 ESE 22 26 12 14 1030.1 1030.0 0.0
21/05:00am 11.4 7.5 9.5 88 1.0 ESE 20 24 11 13 1029.9 1029.8 0.0
21/04:30am 10.7 6.8 9.3 91 0.7 ESE 20 24 11 13 1029.8 1029.7 0.0
21/04:00am 9.6 5.1 8.4 92 0.6 ESE 22 26 12 14 1029.7 1029.6 0.0
21/03:30am 9.4 5.2 8.2 92 0.6 E 20 24 11 13 1029.6 1029.5 0.0
21/03:00am 9.4 5.2 8.2 92 0.6 E 20 24 11 13 1029.8 1029.7 0.0
21/02:30am 9.4 5.3 8.0 91 0.7 E 19 22 10 12 1030.1 1030.0 0.0
21/02:00am 9.4 5.3 7.7 89 0.8 E 19 22 10 12 1030.2 1030.1 0.0
21/01:30am 10.2 6.1 8.5 89 0.8 ESE 20 22 11 12 1030.4 1030.3 0.0
21/01:00am 10.0 6.0 8.1 88 0.9 ESE 19 20 10 11 1030.5 1030.4 0.0
21/12:30am 10.1 5.8 8.0 87 1.0 ESE 20 22 11 12 1030.5 1030.4 0.0
21/12:00am 10.2 6.2 8.3 88 0.9 ESE 19 22 10 12 1030.7 1030.6 0.0
 
Date/Time
CST
Temp
°C
App
Temp
°C
Dew
Point
°C
Rel
Hum
%
Delta-T
°C
Wind Press
QNH
hPa
Press
MSL
hPa
Rain since
9am
mm
Dir  Spd
km/h
Gust
km/h
Spd
kts
Gust
kts
20/11:30pm 9.4 5.5 7.3 87 1.0 ESE 17 20 9 11 1030.8 1030.7 0.0
20/11:00pm 9.8 5.7 7.7 87 1.0 SE 19 20 10 11 1031.0 1030.9 0.0
20/10:30pm 10.3 6.6 7.9 85 1.1 SE 17 20 9 11 1031.3 1031.2 0.0
20/10:00pm 10.7 7.0 8.1 84 1.3 SE 17 19 9 10 1031.5 1031.4 0.0
20/09:30pm 11.2 7.6 8.2 82 1.5 SE 17 20 9 11 1031.6 1031.5 0.0
20/09:00pm 11.4 7.8 8.3 81 1.5 SE 17 20 9 11 1031.6 1031.5 0.0
20/08:30pm 11.8 7.6 8.3 79 1.7 SE 20 26 11 14 1031.4 1031.3 0.0
20/08:00pm 12.3 7.8 8.4 77 1.9 SE 22 26 12 14 1031.5 1031.4 0.0
20/07:30pm 12.4 8.3 8.5 77 1.9 SSE 20 26 11 14 1031.5 1031.4 0.0
20/07:00pm 12.0 8.3 7.9 76 2.0 SSE 17 20 9 11 1031.4 1031.3 0.0
20/06:30pm 12.6 8.8 7.7 72 2.4 SSE 17 20 9 11 1031.0 1030.9 0.0
20/06:00pm 14.1 10.4 7.9 66 3.1 SSE 17 20 9 11 1030.7 1030.6 0.0
20/05:30pm 15.8 11.2 8.3 61 3.8 SE 22 28 12 15 1030.4 1030.3 0.0
20/05:00pm 17.4 13.3 8.0 54 4.8 SSE 19 28 10 15 1030.1 1030.0 0.0
20/04:30pm 17.8 13.5 7.8 52 5.0 SE 20 28 11 15 1030.0 1029.9 0.0
20/04:00pm 18.5 14.1 7.6 49 5.5 SE 20 30 11 16 1030.0 1029.9 0.0
20/03:30pm 19.3 15.3 8.3 49 5.7 SE 19 30 10 16 1030.0 1029.9 0.0
20/03:00pm 19.6 15.5 8.0 47 5.9 SE 19 30 10 16 1029.8 1029.7 0.0
20/02:30pm 19.5 15.2 7.9 47 5.9 SSE 20 28 11 15 1029.7 1029.6 0.0
20/02:00pm 19.6 15.9 8.0 47 6.0 SE 17 28 9 15 1029.8 1029.7 0.0
20/01:30pm 19.4 15.9 8.7 50 5.5 SE 17 24 9 13 1030.1 1030.0 0.0
20/01:00pm 19.2 15.5 7.9 48 5.8 SSE 17 24 9 13 1030.5 1030.4 0.0
20/12:30pm 19.2 15.1 7.9 48 5.8 SE 19 30 10 16 1030.8 1030.7 0.0
20/12:00pm 18.8 15.2 8.2 50 5.4 SE 17 28 9 15 1031.2 1031.1 0.0

Other formats

Comma delimited format used in spreadsheet applications
http://www.bom.gov.au/fwo/IDS60801/IDS60801.95659.axf

JavaScript Object Notation format (JSON) in row-major order
http://www.bom.gov.au/fwo/IDS60801/IDS60801.95659.json

Data quality

Most of these data are generated automatically and are frequently updated. Quality checks on data are not normally performed. It is possible for incorrect values to appear. Refer to information at About Latest Weather Observations and please check the disclaimer before using these data.